Time;durP1;ratioP1;P1;durP2;ratioP2;P2;SDS_P1;SDS_P2;PMS_P1;PMS_P2;Temp;Humidity;BMP_temperature;BMP_pressure;BME280_temperature;BME280_humidity;BME280_pressure;Samples;Min_cycle;Max_cycle;Signal;HPM_P1;HPM_P2
2022/03/18 00:02:03;;;;;;;;;;;12.10;43.90;;;;;;4994389;28;20373;-73
2022/03/18 00:04:29;;;;;;;;;;;12.00;44.20;;;;;;4994798;28;19925;-64
2022/03/18 00:06:54;;;;;;;;;;;12.00;44.20;;;;;;4994737;28;20286;-70
2022/03/18 00:09:21;;;;;;;;;;;12.00;44.20;;;;;;4994448;28;19910;-68
2022/03/18 00:11:46;;;;;;;;;;;12.00;44.20;;;;;;4994392;28;19916;-69
2022/03/18 00:14:12;;;;;;;;;;;12.10;44.00;;;;;;4994549;28;19910;-75
2022/03/18 00:16:37;;;;;;;;;;;12.00;44.20;;;;;;4994571;28;19910;-70
2022/03/18 00:19:03;;;;;;;;;;;12.00;44.30;;;;;;4994479;28;19932;-76
2022/03/18 00:21:28;;;;;;;;;;;12.00;44.20;;;;;;4994401;28;19989;-65
2022/03/18 00:23:54;;;;;;;;;;;12.00;44.00;;;;;;4994273;28;19917;-64
2022/03/18 00:26:19;;;;;;;;;;;12.10;44.00;;;;;;4994438;28;20012;-69
2022/03/18 00:28:45;;;;;;;;;;;12.10;44.00;;;;;;4994246;28;19910;-68
2022/03/18 00:31:12;;;;;;;;;;;12.20;44.00;;;;;;4994601;28;19949;-64
2022/03/18 00:33:37;;;;;;;;;;;12.20;44.00;;;;;;4994459;28;19910;-66
2022/03/18 00:36:03;;;;;;;;;;;12.00;44.30;;;;;;4994566;28;20396;-62
2022/03/18 00:38:29;;;;;;;;;;;12.00;44.40;;;;;;4994204;28;19922;-69
2022/03/18 00:40:56;;;;;;;;;;;11.90;44.80;;;;;;4994181;28;19917;-69
2022/03/18 00:43:22;;;;;;;;;;;11.90;45.00;;;;;;4993140;28;19936;-69
2022/03/18 00:45:48;;;;;;;;;;;11.90;44.90;;;;;;4994415;28;20259;-61
2022/03/18 00:53:41;;;;;;;;;;;12.00;45.00;;;;;;4997826;28;19964;-64
2022/03/18 00:56:07;;;;;;;;;;;11.90;45.20;;;;;;4998099;28;19913;-70
2022/03/18 00:58:32;;;;;;;;;;;11.90;45.30;;;;;;4998131;28;19910;-71
2022/03/18 01:00:58;;;;;;;;;;;11.80;46.10;;;;;;4997895;28;19910;-59
2022/03/18 01:03:23;;;;;;;;;;;11.80;45.60;;;;;;4997710;28;19977;-67
2022/03/18 01:05:49;;;;;;;;;;;11.70;45.80;;;;;;4997810;28;20325;-60
2022/03/18 01:08:14;;;;;;;;;;;11.80;45.70;;;;;;4997858;28;19986;-68
2022/03/18 01:10:40;;;;;;;;;;;11.80;45.70;;;;;;4998157;28;19910;-67
2022/03/18 01:13:05;;;;;;;;;;;11.80;45.60;;;;;;4997729;28;20389;-58
2022/03/18 01:15:31;;;;;;;;;;;11.80;45.70;;;;;;4997558;28;20007;-67
2022/03/18 01:17:57;;;;;;;;;;;11.80;45.80;;;;;;4997734;28;19910;-65
2022/03/18 01:20:22;;;;;;;;;;;11.90;45.80;;;;;;4997745;28;19910;-60
2022/03/18 01:22:48;;;;;;;;;;;11.90;45.70;;;;;;4997197;28;19953;-62
2022/03/18 01:25:13;;;;;;;;;;;11.90;45.60;;;;;;4997503;28;20044;-62
2022/03/18 01:27:39;;;;;;;;;;;11.90;45.70;;;;;;4997485;28;19968;-60
2022/03/18 01:30:05;;;;;;;;;;;11.80;45.90;;;;;;4997306;28;19914;-58
2022/03/18 01:32:33;;;;;;;;;;;11.80;46.00;;;;;;4997107;28;19956;-58
2022/03/18 01:34:58;;;;;;;;;;;11.80;46.10;;;;;;4997186;28;19916;-57
2022/03/18 01:37:24;;;;;;;;;;;11.80;46.20;;;;;;4996804;28;19922;-59
2022/03/18 01:39:49;;;;;;;;;;;11.90;46.20;;;;;;4997387;28;19910;-57
2022/03/18 01:42:15;;;;;;;;;;;11.80;46.40;;;;;;4997236;28;19964;-57
2022/03/18 01:44:41;;;;;;;;;;;11.80;46.50;;;;;;4997035;28;20266;-58
2022/03/18 01:47:07;;;;;;;;;;;11.70;46.80;;;;;;4997026;28;20412;-57
2022/03/18 01:49:32;;;;;;;;;;;11.70;46.80;;;;;;4996770;28;19909;-57
2022/03/18 01:51:58;;;;;;;;;;;11.70;46.90;;;;;;4996892;28;19909;-58
2022/03/18 01:57:08;;;;;;;;;;;11.70;46.80;;;;;;4997185;28;19969;-56
2022/03/18 01:59:34;;;;;;;;;;;11.70;47.00;;;;;;4996959;28;19917;-57
2022/03/18 02:01:59;;;;;;;;;;;11.70;47.00;;;;;;4996704;28;19913;-58
2022/03/18 02:04:25;;;;;;;;;;;11.70;47.20;;;;;;4995539;28;20281;-57
2022/03/18 02:06:51;;;;;;;;;;;11.70;47.30;;;;;;4996489;28;19949;-60
2022/03/18 02:09:17;;;;;;;;;;;11.80;47.30;;;;;;4996687;28;19910;-58
2022/03/18 02:11:43;;;;;;;;;;;11.70;47.20;;;;;;4996563;28;20448;-58
2022/03/18 02:14:08;;;;;;;;;;;11.70;47.40;;;;;;4996428;28;19910;-56
2022/03/18 02:16:34;;;;;;;;;;;11.60;47.50;;;;;;4996314;28;19910;-58
2022/03/18 02:19:00;;;;;;;;;;;11.70;47.40;;;;;;4996546;28;19914;-60
2022/03/18 02:21:28;;;;;;;;;;;11.60;47.60;;;;;;4996144;28;20009;-56
2022/03/18 02:23:53;;;;;;;;;;;11.60;47.80;;;;;;5000074;28;20296;-57
2022/03/18 02:26:19;;;;;;;;;;;11.50;47.90;;;;;;4997575;28;19922;-57
2022/03/18 02:28:44;;;;;;;;;;;11.50;48.10;;;;;;4996329;28;20266;-57
2022/03/18 02:31:10;;;;;;;;;;;11.40;48.10;;;;;;4996302;28;19910;-59
2022/03/18 02:33:36;;;;;;;;;;;11.40;48.50;;;;;;4995876;28;19910;-57
2022/03/18 02:36:01;;;;;;;;;;;11.30;48.40;;;;;;4996366;28;20417;-57
2022/03/18 02:38:27;;;;;;;;;;;11.40;48.60;;;;;;4995868;28;19926;-58
2022/03/18 02:40:52;;;;;;;;;;;11.50;48.40;;;;;;4996165;28;19945;-57
2022/03/18 02:43:18;;;;;;;;;;;11.50;48.40;;;;;;4994780;28;20350;-58
2022/03/18 02:45:43;;;;;;;;;;;11.40;48.30;;;;;;4995784;28;19922;-57
2022/03/18 02:48:09;;;;;;;;;;;11.50;48.40;;;;;;4996072;28;19917;-56
2022/03/18 02:50:35;;;;;;;;;;;11.50;48.30;;;;;;4995698;28;19917;-58
2022/03/18 02:53:01;;;;;;;;;;;11.50;48.30;;;;;;4995791;28;20321;-58
2022/03/18 02:55:27;;;;;;;;;;;11.50;48.30;;;;;;4995851;28;19910;-56
2022/03/18 02:57:52;;;;;;;;;;;11.50;48.40;;;;;;4995760;28;19956;-56
2022/03/18 03:00:18;;;;;;;;;;;11.50;48.50;;;;;;4995848;28;20366;-59
2022/03/18 03:02:43;;;;;;;;;;;11.50;48.60;;;;;;4995625;28;19917;-57
2022/03/18 03:07:59;;;;;;;;;;;11.50;48.40;;;;;;4996029;28;19916;-58
2022/03/18 03:10:25;;;;;;;;;;;11.50;48.50;;;;;;4995766;28;19914;-58
2022/03/18 03:12:51;;;;;;;;;;;11.50;48.20;;;;;;4995453;28;19919;-58
2022/03/18 03:15:16;;;;;;;;;;;11.50;48.20;;;;;;4995018;28;19910;-58
2022/03/18 03:17:42;;;;;;;;;;;11.50;48.00;;;;;;4995410;28;19920;-58
2022/03/18 03:20:08;;;;;;;;;;;11.50;47.90;;;;;;4995695;28;19909;-57
2022/03/18 03:22:34;;;;;;;;;;;11.60;48.00;;;;;;4995143;28;19916;-58
2022/03/18 03:25:00;;;;;;;;;;;11.50;48.20;;;;;;4995374;28;20377;-59
2022/03/18 03:27:31;;;;;;;;;;;11.40;48.20;;;;;;4995063;28;19916;-58
2022/03/18 03:30:00;;;;;;;;;;;11.40;48.40;;;;;;4995269;28;19910;-58
2022/03/18 03:32:27;;;;;;;;;;;11.30;48.50;;;;;;4995072;28;19916;-56
2022/03/18 03:34:54;;;;;;;;;;;11.20;48.80;;;;;;4995402;28;19917;-58
2022/03/18 03:37:19;;;;;;;;;;;11.20;48.70;;;;;;4995136;28;20333;-57
2022/03/18 03:39:45;;;;;;;;;;;11.30;48.60;;;;;;4994921;28;19997;-57
2022/03/18 03:42:10;;;;;;;;;;;11.30;48.70;;;;;;4994867;28;20021;-57
2022/03/18 03:44:36;;;;;;;;;;;11.20;48.70;;;;;;4995016;28;20266;-57
2022/03/18 03:47:01;;;;;;;;;;;11.20;48.60;;;;;;4994556;28;19913;-58
2022/03/18 03:49:27;;;;;;;;;;;11.20;48.50;;;;;;4993564;28;20004;-59
2022/03/18 03:51:53;;;;;;;;;;;11.10;48.60;;;;;;4994683;28;19932;-57
2022/03/18 03:54:18;;;;;;;;;;;11.10;48.60;;;;;;4994719;28;19910;-57
2022/03/18 03:56:44;;;;;;;;;;;11.10;48.70;;;;;;4994749;28;19910;-64
2022/03/18 03:59:09;;;;;;;;;;;11.10;48.60;;;;;;4995709;28;19918;-76
2022/03/18 04:01:35;;;;;;;;;;;11.10;48.70;;;;;;4995956;28;19910;-76
2022/03/18 04:04:00;;;;;;;;;;;11.10;48.60;;;;;;4996207;28;19910;-75
2022/03/18 04:06:26;;;;;;;;;;;11.00;48.90;;;;;;4995632;28;20277;-75
2022/03/18 04:08:51;;;;;;;;;;;11.00;48.90;;;;;;4994795;28;19910;-74
2022/03/18 04:11:17;;;;;;;;;;;11.00;49.00;;;;;;4993709;28;19909;-76
2022/03/18 04:13:43;;;;;;;;;;;11.00;48.90;;;;;;4994739;28;19909;-74
2022/03/18 04:16:08;;;;;;;;;;;11.00;49.00;;;;;;4994472;28;20343;-77
2022/03/18 04:18:34;;;;;;;;;;;11.00;48.90;;;;;;4994901;28;20385;-76
2022/03/18 04:20:59;;;;;;;;;;;11.00;48.90;;;;;;4994588;28;19914;-74
2022/03/18 04:23:25;;;;;;;;;;;10.90;48.80;;;;;;4994435;28;19910;-73
2022/03/18 04:25:51;;;;;;;;;;;11.00;48.60;;;;;;4994497;28;19918;-73
2022/03/18 04:28:17;;;;;;;;;;;10.90;48.60;;;;;;4998569;28;20004;-70
2022/03/18 04:30:43;;;;;;;;;;;10.90;48.30;;;;;;4998768;28;19918;-69
2022/03/18 04:33:08;;;;;;;;;;;11.00;48.30;;;;;;4998469;28;20369;-74
2022/03/18 04:35:34;;;;;;;;;;;11.00;48.40;;;;;;4998776;28;19910;-71
2022/03/18 04:38:00;;;;;;;;;;;11.00;48.30;;;;;;4998315;28;19980;-59
2022/03/18 04:40:25;;;;;;;;;;;11.00;48.70;;;;;;4998211;28;19985;-57
2022/03/18 04:42:51;;;;;;;;;;;10.90;48.70;;;;;;4998262;28;19910;-59
2022/03/18 04:45:16;;;;;;;;;;;11.00;48.70;;;;;;4998005;28;19922;-56
2022/03/18 04:47:42;;;;;;;;;;;11.00;48.70;;;;;;4996878;28;19935;-57
2022/03/18 04:50:09;;;;;;;;;;;11.00;48.80;;;;;;4998082;28;20303;-57
2022/03/18 04:52:35;;;;;;;;;;;10.90;49.00;;;;;;4997978;28;20013;-56
2022/03/18 04:55:00;;;;;;;;;;;10.80;49.40;;;;;;4998087;28;19917;-58
2022/03/18 04:57:26;;;;;;;;;;;10.80;49.70;;;;;;4997960;28;19945;-58
2022/03/18 04:59:52;;;;;;;;;;;10.70;50.20;;;;;;4998010;28;19916;-61
2022/03/18 05:02:18;;;;;;;;;;;10.70;50.30;;;;;;4997750;28;20377;-58
2022/03/18 05:04:44;;;;;;;;;;;10.60;50.30;;;;;;4997723;28;19920;-58
2022/03/18 05:07:11;;;;;;;;;;;10.60;50.30;;;;;;4997835;28;19968;-60
2022/03/18 05:09:40;;;;;;;;;;;10.60;50.30;;;;;;4997833;28;19957;-58
2022/03/18 05:12:10;;;;;;;;;;;10.60;50.40;;;;;;4997640;28;19909;-58
2022/03/18 05:14:36;;;;;;;;;;;10.70;50.20;;;;;;4997625;28;19929;-59
2022/03/18 05:17:02;;;;;;;;;;;10.80;50.00;;;;;;4997676;28;19962;-58
2022/03/18 05:19:28;;;;;;;;;;;10.70;50.00;;;;;;4998141;28;19941;-58
2022/03/18 05:21:55;;;;;;;;;;;10.70;50.20;;;;;;5002391;28;19917;-57
2022/03/18 05:24:20;;;;;;;;;;;10.70;50.20;;;;;;4999424;28;19921;-58
2022/03/18 05:26:46;;;;;;;;;;;10.60;50.60;;;;;;4998922;28;19910;-59
2022/03/18 05:29:13;;;;;;;;;;;10.60;50.80;;;;;;4997490;28;19910;-58
2022/03/18 05:31:39;;;;;;;;;;;10.50;51.00;;;;;;4997464;28;19996;-58
2022/03/18 05:34:04;;;;;;;;;;;10.50;51.10;;;;;;4997800;28;19977;-59
2022/03/18 05:36:30;;;;;;;;;;;10.40;51.40;;;;;;4997357;28;19940;-58
2022/03/18 05:38:56;;;;;;;;;;;10.40;51.20;;;;;;4996879;28;20330;-59
2022/03/18 05:41:21;;;;;;;;;;;10.40;51.20;;;;;;4997255;28;19910;-61
2022/03/18 05:43:47;;;;;;;;;;;10.50;51.00;;;;;;4997258;28;19910;-59
2022/03/18 05:46:12;;;;;;;;;;;10.50;50.80;;;;;;4997541;28;19941;-60
2022/03/18 05:48:38;;;;;;;;;;;10.40;51.00;;;;;;4997562;28;19964;-64
2022/03/18 05:51:04;;;;;;;;;;;10.40;50.90;;;;;;4997840;28;19910;-59
2022/03/18 05:53:29;;;;;;;;;;;10.40;51.00;;;;;;4997412;28;19920;-66
2022/03/18 05:58:43;;;;;;;;;;;10.50;51.40;;;;;;4997636;28;19917;-63
2022/03/18 06:01:10;;;;;;;;;;;10.50;51.00;;;;;;4997090;28;19910;-59
2022/03/18 06:03:36;;;;;;;;;;;10.50;51.00;;;;;;4997053;28;19909;-64
2022/03/18 06:06:03;;;;;;;;;;;10.50;51.40;;;;;;4996965;28;19925;-58
2022/03/18 06:13:57;;;;;;;;;;;10.50;51.80;;;;;;4996893;28;20001;-66
2022/03/18 06:16:22;;;;;;;;;;;10.60;51.90;;;;;;4996960;28;20370;-58
2022/03/18 06:18:48;;;;;;;;;;;10.60;51.90;;;;;;4996476;28;20285;-66
2022/03/18 06:21:15;;;;;;;;;;;10.50;52.10;;;;;;4996433;28;20352;-62
2022/03/18 06:23:41;;;;;;;;;;;10.40;52.30;;;;;;4996611;28;20362;-60
2022/03/18 06:26:06;;;;;;;;;;;10.40;52.80;;;;;;4995366;28;19925;-58
2022/03/18 06:28:32;;;;;;;;;;;10.40;52.70;;;;;;4996166;28;19945;-58
2022/03/18 06:30:58;;;;;;;;;;;10.30;53.10;;;;;;4996227;28;20346;-58
2022/03/18 06:33:23;;;;;;;;;;;10.40;53.00;;;;;;4996141;28;20004;-58
2022/03/18 06:35:49;;;;;;;;;;;10.40;52.90;;;;;;4996339;28;20340;-67
2022/03/18 06:38:14;;;;;;;;;;;10.50;52.70;;;;;;4996113;28;19928;-72
2022/03/18 06:40:40;;;;;;;;;;;10.50;52.80;;;;;;4996427;28;19910;-56
2022/03/18 06:43:06;;;;;;;;;;;10.40;52.70;;;;;;4996020;28;20362;-58
2022/03/18 06:45:32;;;;;;;;;;;10.40;52.90;;;;;;4996471;28;19917;-58
2022/03/18 06:47:57;;;;;;;;;;;10.40;52.80;;;;;;4996016;28;19914;-59
2022/03/18 06:50:24;;;;;;;;;;;10.40;52.70;;;;;;4995398;28;19914;-70
2022/03/18 06:52:50;;;;;;;;;;;10.40;52.80;;;;;;4996087;28;19921;-67
2022/03/18 06:55:16;;;;;;;;;;;10.50;52.80;;;;;;4995894;28;20289;-62
2022/03/18 06:57:42;;;;;;;;;;;10.70;54.90;;;;;;4995891;28;19968;-57
2022/03/18 07:00:08;;;;;;;;;;;11.00;54.10;;;;;;4995693;28;19909;-65
2022/03/18 07:02:34;;;;;;;;;;;11.30;54.10;;;;;;4995821;28;19909;-60
2022/03/18 07:04:59;;;;;;;;;;;11.50;52.70;;;;;;4995508;28;19917;-57
2022/03/18 07:07:25;;;;;;;;;;;11.50;51.20;;;;;;4995708;28;19910;-56
2022/03/18 07:09:50;;;;;;;;;;;11.60;54.10;;;;;;4995598;28;20361;-60
2022/03/18 07:12:16;;;;;;;;;;;11.50;50.60;;;;;;4995368;28;20299;-53
2022/03/18 07:14:42;;;;;;;;;;;11.80;53.20;;;;;;4995384;28;20008;-72
2022/03/18 07:20:13;;;;;;;;;;;12.20;50.10;;;;;;5033011;28;20250;-59
2022/03/18 07:22:38;;;;;;;;;;;12.20;48.50;;;;;;5032439;28;19947;-62
2022/03/18 07:25:04;;;;;;;;;;;12.20;49.90;;;;;;5015067;28;19921;-69
2022/03/18 07:27:30;;;;;;;;;;;12.40;48.10;;;;;;4995340;28;19949;-56
2022/03/18 07:29:55;;;;;;;;;;;12.20;47.40;;;;;;4995059;28;19916;-56
2022/03/18 07:32:21;;;;;;;;;;;12.10;47.50;;;;;;4994931;28;19910;-62
2022/03/18 07:34:46;;;;;;;;;;;11.90;47.70;;;;;;4995506;28;19913;-74
2022/03/18 07:37:12;;;;;;;;;;;11.80;48.30;;;;;;4994774;28;20033;-58
2022/03/18 07:39:38;;;;;;;;;;;11.80;48.20;;;;;;4994205;28;20005;-66
2022/03/18 07:42:04;;;;;;;;;;;11.60;48.30;;;;;;4993554;28;19925;-58
2022/03/18 07:44:29;;;;;;;;;;;11.60;48.70;;;;;;4994291;28;19914;-58
2022/03/18 07:46:55;;;;;;;;;;;11.60;48.70;;;;;;4994468;28;19936;-59
2022/03/18 07:49:21;;;;;;;;;;;11.70;48.70;;;;;;4994292;28;19910;-56
2022/03/18 07:51:46;;;;;;;;;;;11.70;48.40;;;;;;4994820;28;19996;-57
2022/03/18 07:54:12;;;;;;;;;;;11.60;48.60;;;;;;4993631;28;19996;-57
2022/03/18 07:56:37;;;;;;;;;;;11.60;48.90;;;;;;4995074;28;19910;-57
2022/03/18 07:59:03;;;;;;;;;;;11.60;48.60;;;;;;4993069;28;19910;-59
2022/03/18 08:01:29;;;;;;;;;;;11.70;48.50;;;;;;4994714;28;19910;-59
2022/03/18 08:03:55;;;;;;;;;;;11.60;48.40;;;;;;4994870;28;20358;-57
2022/03/18 08:06:21;;;;;;;;;;;11.60;48.20;;;;;;4994538;28;19922;-59
2022/03/18 08:08:46;;;;;;;;;;;11.60;48.30;;;;;;4994602;28;19956;-58
2022/03/18 08:11:13;;;;;;;;;;;11.70;48.50;;;;;;4994593;28;20378;-58
2022/03/18 08:13:39;;;;;;;;;;;11.80;48.10;;;;;;4994556;28;19956;-60
2022/03/18 08:16:04;;;;;;;;;;;11.90;48.20;;;;;;4994658;28;19961;-57
2022/03/18 08:18:30;;;;;;;;;;;11.90;47.80;;;;;;4996341;28;20021;-57
2022/03/18 08:20:56;;;;;;;;;;;12.00;47.50;;;;;;4996875;28;19914;-62
2022/03/18 08:23:23;;;;;;;;;;;12.10;47.50;;;;;;4993603;28;19976;-57
2022/03/18 08:25:48;;;;;;;;;;;12.20;47.10;;;;;;4993643;28;20013;-58
2022/03/18 08:28:14;;;;;;;;;;;12.10;47.10;;;;;;4993741;28;19964;-58
2022/03/18 08:30:40;;;;;;;;;;;12.10;47.40;;;;;;4993731;28;19910;-60
2022/03/18 08:33:05;;;;;;;;;;;12.20;47.20;;;;;;4993490;28;19909;-58
2022/03/18 08:35:31;;;;;;;;;;;12.30;46.90;;;;;;4994060;28;19910;-58
2022/03/18 08:37:57;;;;;;;;;;;12.30;46.70;;;;;;4993628;28;20274;-57
2022/03/18 08:40:23;;;;;;;;;;;12.40;45.90;;;;;;4994402;28;19914;-57
2022/03/18 08:42:49;;;;;;;;;;;12.40;45.80;;;;;;4993831;28;19910;-58
2022/03/18 08:45:14;;;;;;;;;;;12.50;46.30;;;;;;4994208;28;19917;-62
2022/03/18 08:47:40;;;;;;;;;;;12.40;46.10;;;;;;4994194;28;20365;-55
2022/03/18 08:50:06;;;;;;;;;;;12.50;45.60;;;;;;4993912;28;20392;-54
2022/03/18 08:52:32;;;;;;;;;;;12.50;45.70;;;;;;4993176;28;19997;-55
2022/03/18 08:54:57;;;;;;;;;;;12.50;45.30;;;;;;4992759;28;19974;-56
2022/03/18 08:57:23;;;;;;;;;;;12.50;45.00;;;;;;4994474;28;19910;-70
2022/03/18 08:59:48;;;;;;;;;;;12.60;44.60;;;;;;4995459;28;19914;-77
2022/03/18 09:02:14;;;;;;;;;;;12.50;44.30;;;;;;4996300;28;20274;-79
2022/03/18 09:04:39;;;;;;;;;;;12.50;44.40;;;;;;4994972;28;19917;-79
2022/03/18 09:07:05;;;;;;;;;;;12.50;44.20;;;;;;4993920;28;19914;-79
2022/03/18 09:09:31;;;;;;;;;;;12.40;44.00;;;;;;4993490;28;20012;-75
2022/03/18 09:11:56;;;;;;;;;;;12.40;44.10;;;;;;4993195;28;20388;-80
2022/03/18 09:14:22;;;;;;;;;;;12.50;44.30;;;;;;4996558;28;19910;-70
2022/03/18 09:16:49;;;;;;;;;;;12.50;43.70;;;;;;4996492;28;19989;-72
2022/03/18 09:19:15;;;;;;;;;;;12.50;43.60;;;;;;4997064;28;19910;-75
2022/03/18 09:21:40;;;;;;;;;;;12.50;43.80;;;;;;4996055;28;19910;-74
2022/03/18 09:24:06;;;;;;;;;;;12.50;43.70;;;;;;4996936;28;19910;-69
2022/03/18 09:26:31;;;;;;;;;;;12.60;43.40;;;;;;4996684;28;20012;-69
2022/03/18 09:28:57;;;;;;;;;;;12.60;43.50;;;;;;4996698;28;19913;-69
2022/03/18 09:31:23;;;;;;;;;;;12.60;42.90;;;;;;4996895;28;19949;-57
2022/03/18 09:33:48;;;;;;;;;;;12.60;43.00;;;;;;4996986;28;19910;-60
2022/03/18 09:36:18;;;;;;;;;;;12.50;42.80;;;;;;4996512;28;19916;-62
2022/03/18 09:38:45;;;;;;;;;;;12.50;43.20;;;;;;4988180;28;19957;-64
2022/03/18 09:41:10;;;;;;;;;;;12.50;43.10;;;;;;4996726;28;20401;-58
2022/03/18 09:43:36;;;;;;;;;;;12.50;43.40;;;;;;4996729;28;19917;-57
2022/03/18 09:46:03;;;;;;;;;;;12.60;43.10;;;;;;4996737;28;19918;-58
2022/03/18 09:48:29;;;;;;;;;;;12.70;42.60;;;;;;4996840;28;19933;-69
2022/03/18 09:50:55;;;;;;;;;;;12.70;42.40;;;;;;4996583;28;19910;-70
2022/03/18 09:53:21;;;;;;;;;;;12.60;42.50;;;;;;4996686;28;19964;-57
2022/03/18 09:55:48;;;;;;;;;;;12.60;42.60;;;;;;4996439;28;19910;-65
2022/03/18 09:58:14;;;;;;;;;;;12.60;43.40;;;;;;4996249;28;19940;-64
2022/03/18 10:00:39;;;;;;;;;;;12.70;42.60;;;;;;4995924;28;20006;-67
2022/03/18 10:03:11;;;;;;;;;;;12.90;42.50;;;;;;4996342;28;19914;-72
2022/03/18 10:05:46;;;;;;;;;;;12.90;42.10;;;;;;4996446;28;20401;-63
2022/03/18 10:08:12;;;;;;;;;;;12.90;41.90;;;;;;4995214;28;19953;-65
2022/03/18 10:10:47;;;;;;;;;;;13.00;42.10;;;;;;4996233;28;20007;-59
2022/03/18 10:13:15;;;;;;;;;;;12.90;41.70;;;;;;4996469;28;19914;-59
2022/03/18 10:15:41;;;;;;;;;;;13.00;42.30;;;;;;4994949;28;19921;-58
2022/03/18 10:18:09;;;;;;;;;;;13.10;42.30;;;;;;4996388;28;19914;-59
2022/03/18 10:20:42;;;;;;;;;;;13.10;42.30;;;;;;4996359;28;19910;-61
2022/03/18 10:23:14;;;;;;;;;;;13.20;42.30;;;;;;4995816;28;20309;-73
2022/03/18 10:25:53;;;;;;;;;;;13.10;41.70;;;;;;4995261;28;20018;-62
2022/03/18 10:28:36;;;;;;;;;;;13.00;42.10;;;;;;4996017;28;19910;-58
2022/03/18 10:31:19;;;;;;;;;;;13.00;42.10;;;;;;4996049;28;20278;-59
2022/03/18 10:39:23;;;;;;;;;;;13.20;42.00;;;;;;4996130;28;19917;-57
2022/03/18 10:41:49;;;;;;;;;;;13.30;42.30;;;;;;4995850;28;19921;-57
2022/03/18 10:44:18;;;;;;;;;;;13.50;41.40;;;;;;4995726;28;19910;-59
2022/03/18 10:46:47;;;;;;;;;;;13.50;41.20;;;;;;4995345;28;20318;-57
2022/03/18 10:49:13;;;;;;;;;;;13.70;41.10;;;;;;4995752;28;19953;-58
2022/03/18 10:51:38;;;;;;;;;;;13.80;41.30;;;;;;4995516;28;19976;-58
2022/03/18 10:54:04;;;;;;;;;;;14.00;40.50;;;;;;4995646;28;20358;-61
2022/03/18 10:56:50;;;;;;;;;;;14.20;39.80;;;;;;4995613;28;19914;-56
2022/03/18 10:59:17;;;;;;;;;;;14.20;39.10;;;;;;4995348;28;20432;-58
2022/03/18 11:01:47;;;;;;;;;;;14.20;38.80;;;;;;4995309;28;19910;-57
2022/03/18 11:04:14;;;;;;;;;;;14.10;38.40;;;;;;4995620;28;20277;-56
2022/03/18 11:06:40;;;;;;;;;;;13.90;38.60;;;;;;4995583;28;19968;-56
2022/03/18 11:09:06;;;;;;;;;;;13.90;39.10;;;;;;4995431;28;19933;-57
2022/03/18 11:11:31;;;;;;;;;;;14.00;39.10;;;;;;4995951;28;19917;-58
2022/03/18 11:14:06;;;;;;;;;;;14.20;38.60;;;;;;5002650;28;19963;-57
2022/03/18 11:16:34;;;;;;;;;;;14.20;37.60;;;;;;5000203;28;19910;-58
2022/03/18 11:19:04;;;;;;;;;;;14.20;38.00;;;;;;4995160;28;19929;-58
2022/03/18 11:21:39;;;;;;;;;;;14.30;38.30;;;;;;4994899;28;20366;-58
2022/03/18 11:24:07;;;;;;;;;;;14.40;38.00;;;;;;4995203;28;19917;-57
2022/03/18 11:26:34;;;;;;;;;;;14.50;37.70;;;;;;4994817;28;20020;-58
2022/03/18 11:29:13;;;;;;;;;;;14.50;37.70;;;;;;4994952;28;19945;-57
2022/03/18 11:31:39;;;;;;;;;;;14.50;37.70;;;;;;4994706;28;19914;-59
2022/03/18 11:34:08;;;;;;;;;;;14.60;38.20;;;;;;4994797;28;19910;-57
2022/03/18 11:36:34;;;;;;;;;;;14.90;38.00;;;;;;4994580;28;19997;-57
2022/03/18 11:39:02;;;;;;;;;;;15.00;37.80;;;;;;4994893;28;19924;-57
2022/03/18 11:41:44;;;;;;;;;;;14.90;37.00;;;;;;4994968;28;19914;-58
2022/03/18 11:44:11;;;;;;;;;;;14.80;37.20;;;;;;4994978;28;20341;-58
2022/03/18 11:46:36;;;;;;;;;;;14.70;37.50;;;;;;4994524;28;19965;-57
2022/03/18 11:49:02;;;;;;;;;;;14.60;37.30;;;;;;4994681;28;19945;-57
2022/03/18 11:51:30;;;;;;;;;;;14.60;37.10;;;;;;4994750;28;20313;-58
2022/03/18 11:54:01;;;;;;;;;;;14.50;37.20;;;;;;4994756;28;19917;-57
2022/03/18 11:56:38;;;;;;;;;;;14.60;37.60;;;;;;4994786;28;19910;-58
2022/03/18 11:59:22;;;;;;;;;;;14.80;36.70;;;;;;4994744;28;20014;-58
2022/03/18 12:01:51;;;;;;;;;;;14.70;35.80;;;;;;4994503;28;20392;-58
2022/03/18 12:04:40;;;;;;;;;;;14.80;35.90;;;;;;4994586;28;19956;-58
2022/03/18 12:07:28;;;;;;;;;;;15.00;35.60;;;;;;4994305;28;19965;-62
2022/03/18 12:10:02;;;;;;;;;;;15.10;35.30;;;;;;4994635;28;20412;-58
2022/03/18 12:12:34;;;;;;;;;;;15.10;34.90;;;;;;4994085;28;19953;-62
2022/03/18 12:15:20;;;;;;;;;;;15.20;35.00;;;;;;4994654;28;19910;-57
2022/03/18 12:17:52;;;;;;;;;;;15.10;34.90;;;;;;4994166;28;20306;-58
2022/03/18 12:20:19;;;;;;;;;;;15.10;35.00;;;;;;4994311;28;19910;-57
2022/03/18 12:22:45;;;;;;;;;;;15.10;34.90;;;;;;4994636;28;19910;-57
2022/03/18 12:25:11;;;;;;;;;;;15.10;34.90;;;;;;4994367;28;19939;-60
2022/03/18 12:27:38;;;;;;;;;;;15.00;34.80;;;;;;4994416;28;19949;-59
2022/03/18 12:30:05;;;;;;;;;;;14.90;35.00;;;;;;4994208;28;19949;-58
2022/03/18 12:32:31;;;;;;;;;;;15.00;35.10;;;;;;4994300;28;19917;-60
2022/03/18 12:34:57;;;;;;;;;;;14.90;34.30;;;;;;4994116;28;19910;-60
2022/03/18 12:37:24;;;;;;;;;;;15.00;34.10;;;;;;4994117;28;19929;-60
2022/03/18 12:40:09;;;;;;;;;;;14.80;34.00;;;;;;4994100;28;19916;-63
2022/03/18 12:42:45;;;;;;;;;;;14.80;34.40;;;;;;4993832;28;20412;-58
2022/03/18 12:45:11;;;;;;;;;;;14.80;34.60;;;;;;4994074;28;20353;-57
2022/03/18 12:47:37;;;;;;;;;;;14.80;34.60;;;;;;4995190;28;20409;-57
2022/03/18 12:50:03;;;;;;;;;;;14.60;34.20;;;;;;4997758;28;19910;-60
2022/03/18 12:52:28;;;;;;;;;;;14.50;34.60;;;;;;4997971;28;19914;-62
2022/03/18 12:55:05;;;;;;;;;;;14.50;35.00;;;;;;4997924;28;19960;-59
2022/03/18 12:57:41;;;;;;;;;;;14.60;34.90;;;;;;4997811;28;19910;-62
2022/03/18 13:00:08;;;;;;;;;;;14.60;34.90;;;;;;4997744;28;20366;-62
2022/03/18 13:02:37;;;;;;;;;;;14.60;35.00;;;;;;4998121;28;19910;-59
2022/03/18 13:05:06;;;;;;;;;;;14.70;35.00;;;;;;4997652;28;19964;-58
2022/03/18 13:07:32;;;;;;;;;;;14.70;35.60;;;;;;4997504;28;20320;-57
2022/03/18 13:09:58;;;;;;;;;;;14.70;34.50;;;;;;4997680;28;19914;-57
2022/03/18 13:12:25;;;;;;;;;;;14.70;34.60;;;;;;4997285;28;20385;-57
2022/03/18 13:14:54;;;;;;;;;;;14.80;34.70;;;;;;4997551;28;20048;-58
2022/03/18 13:17:32;;;;;;;;;;;14.90;34.50;;;;;;4997546;28;19910;-65
2022/03/18 13:19:58;;;;;;;;;;;14.90;34.20;;;;;;4997442;28;19910;-58
2022/03/18 13:22:25;;;;;;;;;;;14.90;34.70;;;;;;4997312;28;19916;-58
2022/03/18 13:24:51;;;;;;;;;;;14.90;34.30;;;;;;4997414;28;20004;-58
2022/03/18 13:27:18;;;;;;;;;;;14.90;34.40;;;;;;4997451;28;19914;-58
2022/03/18 13:35:12;;;;;;;;;;;14.90;35.00;;;;;;4998080;28;19916;-57
2022/03/18 13:37:38;;;;;;;;;;;14.80;34.30;;;;;;4997053;28;19961;-58
2022/03/18 13:40:12;;;;;;;;;;;14.80;34.50;;;;;;4997060;28;19914;-58
2022/03/18 13:42:37;;;;;;;;;;;14.70;34.70;;;;;;4996871;28;20011;-58
2022/03/18 13:45:04;;;;;;;;;;;14.80;34.50;;;;;;4997727;28;20331;-61
2022/03/18 13:47:43;;;;;;;;;;;14.90;34.10;;;;;;5002076;28;19909;-63
2022/03/18 13:50:09;;;;;;;;;;;14.70;34.10;;;;;;5001382;28;19941;-74
2022/03/18 13:52:35;;;;;;;;;;;14.70;34.20;;;;;;4998560;28;20251;-72
2022/03/18 13:55:01;;;;;;;;;;;14.80;34.40;;;;;;4997028;28;19921;-74
2022/03/18 13:57:27;;;;;;;;;;;14.80;34.70;;;;;;4996771;28;19910;-77
2022/03/18 13:59:54;;;;;;;;;;;14.90;34.30;;;;;;4996590;28;19910;-76
2022/03/18 14:02:29;;;;;;;;;;;14.90;34.00;;;;;;4997628;28;20060;-70
2022/03/18 14:04:58;;;;;;;;;;;14.70;33.70;;;;;;5004807;28;20028;-70
2022/03/18 14:07:44;;;;;;;;;;;14.70;33.90;;;;;;5003113;28;19910;-76
2022/03/18 14:10:09;;;;;;;;;;;14.70;34.20;;;;;;4996217;28;19910;-66
2022/03/18 14:12:35;;;;;;;;;;;14.70;33.90;;;;;;4995028;28;19909;-70
2022/03/18 14:15:07;;;;;;;;;;;14.70;33.90;;;;;;4996543;28;20008;-72
2022/03/18 14:17:33;;;;;;;;;;;14.70;33.80;;;;;;4996141;28;19936;-70
2022/03/18 14:20:08;;;;;;;;;;;14.80;33.80;;;;;;4996215;28;19910;-70
2022/03/18 14:22:34;;;;;;;;;;;14.80;34.10;;;;;;4996122;28;20372;-59
2022/03/18 14:25:00;;;;;;;;;;;14.90;34.10;;;;;;4996407;28;19917;-70
2022/03/18 14:27:26;;;;;;;;;;;14.80;34.40;;;;;;4996197;28;19977;-58
2022/03/18 14:29:52;;;;;;;;;;;14.90;34.50;;;;;;4996353;28;20005;-64
2022/03/18 14:32:18;;;;;;;;;;;14.80;33.90;;;;;;4995584;28;19957;-75
2022/03/18 14:34:45;;;;;;;;;;;14.90;33.50;;;;;;4995973;28;19910;-77
2022/03/18 14:37:11;;;;;;;;;;;14.90;33.20;;;;;;4995607;28;20424;-59
2022/03/18 14:39:37;;;;;;;;;;;14.90;33.30;;;;;;4996387;28;19918;-72
2022/03/18 14:42:03;;;;;;;;;;;14.90;33.20;;;;;;4995816;28;19997;-73
2022/03/18 14:44:28;;;;;;;;;;;14.90;33.50;;;;;;4995905;28;19910;-71
2022/03/18 14:46:54;;;;;;;;;;;14.80;33.50;;;;;;4996204;28;19916;-61
2022/03/18 14:49:19;;;;;;;;;;;14.80;33.40;;;;;;4996209;28;19910;-64